Petersburg, Iowa
Current Conditions -  °F | °C
As of 2:35 AM on Thursday 23 Oct 2014 (Local Time) from KMXO Reporting Station
Clear Clear  
Wind Chill: 40°   Ceiling: Unl
Heat Index: 45°   Visibility: 10mi
Dew Point: 39°   Wind: 8mph
Humidity: 81%   Direction: 140°SE
Pressure: 30.14"   Gusts: NA
Location:  42.495°N, 91.1159°W
Report Text: KMXO 230735Z AUTO 14007KT 10SM CLR 07/04 A3014 RMK AO2
Loading
Personal Weather Stations






























Interactive Weather Map
Tropical Storm Tracking
New forecast layout! Learn more

10-Day Weather Forecast

Advertisements
Track Severe Weather on mobile